createdAt,value
2024-01-31T00:02:02.140Z,10.10
2024-01-31T00:04:30.429Z,10.00
2024-01-31T00:06:58.651Z,10.10
2024-01-31T00:09:27.699Z,10.10
2024-01-31T00:11:57.217Z,10.00
2024-01-31T00:14:25.337Z,10.00
2024-01-31T00:16:53.400Z,10.00
2024-01-31T00:19:55.849Z,10.00
2024-01-31T00:22:24.002Z,10.00
2024-01-31T00:24:52.070Z,10.00
2024-01-31T00:27:21.486Z,10.00
2024-01-31T00:29:49.781Z,10.00
2024-01-31T00:32:17.869Z,10.00
2024-01-31T00:34:46.008Z,10.00
2024-01-31T00:37:14.285Z,9.90
2024-01-31T00:39:43.049Z,10.00
2024-01-31T00:42:11.214Z,9.90
2024-01-31T00:44:40.706Z,9.90
2024-01-31T00:47:08.869Z,9.80
2024-01-31T00:49:37.189Z,9.90
2024-01-31T00:52:05.979Z,9.90
2024-01-31T00:54:34.155Z,9.90
2024-01-31T00:57:02.480Z,9.90
2024-01-31T00:59:30.864Z,9.90
2024-01-31T01:02:00.384Z,9.90
2024-01-31T01:04:28.583Z,9.90
2024-01-31T01:06:56.742Z,9.90
2024-01-31T01:09:24.862Z,9.90
2024-01-31T01:11:53.053Z,9.90
2024-01-31T01:14:21.198Z,9.90
2024-01-31T01:16:49.268Z,9.90
2024-01-31T01:19:18.725Z,9.90
2024-01-31T01:21:46.874Z,9.90
2024-01-31T01:24:15.015Z,9.90
2024-01-31T01:26:43.130Z,10.00
2024-01-31T01:29:11.592Z,9.90
2024-01-31T01:31:39.942Z,9.90
2024-01-31T01:34:08.150Z,9.90
2024-01-31T01:36:37.621Z,9.90
2024-01-31T01:39:05.702Z,9.90
2024-01-31T01:41:33.720Z,9.90
2024-01-31T01:44:01.777Z,10.00
2024-01-31T01:46:38.303Z,10.00
2024-01-31T01:49:06.572Z,9.90
2024-01-31T01:51:35.089Z,9.90
2024-01-31T01:54:05.048Z,9.80
2024-01-31T01:56:33.666Z,9.90
2024-01-31T01:59:02.578Z,9.90
2024-01-31T02:01:31.217Z,10.00
2024-01-31T02:04:00.504Z,9.90
2024-01-31T02:06:28.721Z,9.90
2024-01-31T02:08:57.104Z,9.90
2024-01-31T02:11:26.744Z,9.90
2024-01-31T02:13:54.803Z,9.90
2024-01-31T02:16:22.888Z,9.80
2024-01-31T02:18:50.959Z,9.80
2024-01-31T02:21:19.119Z,9.80
2024-01-31T02:23:48.487Z,9.80
2024-01-31T02:26:16.530Z,9.90
2024-01-31T02:28:44.649Z,9.80
2024-01-31T02:31:12.805Z,9.90
2024-01-31T02:33:40.877Z,9.90
2024-01-31T02:36:10.266Z,9.90
2024-01-31T02:38:38.325Z,9.90
2024-01-31T02:41:07.731Z,9.90
2024-01-31T02:43:35.877Z,9.80
2024-01-31T02:46:04.078Z,9.80
2024-01-31T02:48:32.237Z,9.90
2024-01-31T02:51:00.375Z,9.80
2024-01-31T02:53:28.479Z,9.90
2024-01-31T02:55:56.522Z,9.90
2024-01-31T02:58:25.882Z,9.90
2024-01-31T03:00:53.927Z,9.90
2024-01-31T03:03:21.975Z,9.90
2024-01-31T03:05:50.196Z,9.90
2024-01-31T03:08:18.218Z,9.90
2024-01-31T03:10:46.376Z,9.90
2024-01-31T03:13:15.826Z,9.90
2024-01-31T03:15:45.261Z,9.70
2024-01-31T03:18:13.528Z,9.70
2024-01-31T03:20:41.653Z,9.80
2024-01-31T03:23:09.982Z,9.80
2024-01-31T03:25:38.147Z,9.60
2024-01-31T03:28:06.727Z,9.70
2024-01-31T03:30:34.785Z,9.80
2024-01-31T03:33:04.327Z,9.80
2024-01-31T03:35:32.468Z,9.70
2024-01-31T03:38:00.525Z,9.70
2024-01-31T03:40:28.771Z,9.70
2024-01-31T03:42:56.907Z,9.70
2024-01-31T03:45:25.036Z,9.90
2024-01-31T03:47:53.220Z,9.80
2024-01-31T03:50:22.660Z,9.80
2024-01-31T03:52:50.760Z,9.80
2024-01-31T03:55:18.944Z,9.80
2024-01-31T03:57:47.037Z,9.80
2024-01-31T04:00:16.149Z,9.80
2024-01-31T04:02:44.221Z,9.80
2024-01-31T04:05:13.234Z,9.80
2024-01-31T04:07:46.832Z,9.80
2024-01-31T04:10:16.164Z,9.80
2024-01-31T04:12:44.363Z,9.80
2024-01-31T04:15:12.370Z,9.80
2024-01-31T04:17:40.430Z,9.80
2024-01-31T04:20:09.728Z,9.70
2024-01-31T04:22:38.006Z,9.70
2024-01-31T04:25:08.627Z,9.60
2024-01-31T04:27:39.410Z,9.60
2024-01-31T04:30:11.561Z,9.60
2024-01-31T04:32:40.250Z,9.70
2024-01-31T04:35:10.332Z,9.60
2024-01-31T04:37:38.810Z,9.60
2024-01-31T04:40:10.054Z,9.60
2024-01-31T04:42:38.576Z,9.60
2024-01-31T04:45:09.559Z,9.60
2024-01-31T04:47:37.628Z,9.50
2024-01-31T04:50:06.613Z,9.60
2024-01-31T04:52:34.873Z,9.60
2024-01-31T04:55:26.112Z,9.60
2024-01-31T04:57:54.259Z,9.60
2024-01-31T05:00:25.033Z,9.60
2024-01-31T05:02:56.240Z,9.60
2024-01-31T05:05:24.399Z,9.70
2024-01-31T05:07:52.575Z,9.70
2024-01-31T05:10:21.506Z,9.70
2024-01-31T05:12:51.011Z,9.70
2024-01-31T05:15:19.333Z,9.60
2024-01-31T05:17:47.985Z,9.60
2024-01-31T05:20:16.378Z,9.60
2024-01-31T05:22:44.998Z,9.50
2024-01-31T05:25:13.107Z,9.60
2024-01-31T05:27:41.215Z,9.60
2024-01-31T05:30:11.637Z,9.60
2024-01-31T05:32:39.824Z,9.50
2024-01-31T05:35:08.863Z,9.60
2024-01-31T05:37:40.172Z,9.60
2024-01-31T05:40:10.470Z,9.60
2024-01-31T05:42:38.599Z,9.60
2024-01-31T05:45:07.337Z,9.60
2024-01-31T05:47:36.831Z,9.60
2024-01-31T05:50:05.241Z,9.60
2024-01-31T05:52:33.495Z,9.60
2024-01-31T05:55:01.730Z,9.60
2024-01-31T05:57:29.897Z,9.50
2024-01-31T05:59:58.016Z,9.60
2024-01-31T06:02:26.172Z,9.60
2024-01-31T06:04:55.619Z,9.60
2024-01-31T06:07:23.727Z,9.70
2024-01-31T06:09:51.837Z,9.60
2024-01-31T06:12:19.829Z,9.60
2024-01-31T06:14:47.963Z,9.60
2024-01-31T06:17:18.214Z,9.60
2024-01-31T06:19:46.432Z,9.70
2024-01-31T06:22:15.951Z,9.60
2024-01-31T06:24:44.059Z,9.70
2024-01-31T06:27:12.129Z,9.70
2024-01-31T06:29:41.132Z,9.70
2024-01-31T06:32:10.037Z,9.70
2024-01-31T06:34:38.236Z,9.70
2024-01-31T06:37:06.635Z,9.70
2024-01-31T06:39:36.149Z,9.70
2024-01-31T06:42:04.474Z,9.70
2024-01-31T06:44:32.761Z,9.70
2024-01-31T06:47:00.939Z,9.70
2024-01-31T06:49:29.358Z,9.70
2024-01-31T06:51:57.596Z,9.70
2024-01-31T06:54:25.909Z,9.70
2024-01-31T06:56:55.385Z,9.70
2024-01-31T06:59:23.857Z,9.70
2024-01-31T07:01:52.089Z,9.70
2024-01-31T07:04:20.829Z,9.80
2024-01-31T07:06:49.179Z,9.80
2024-01-31T07:09:17.322Z,9.70
2024-01-31T07:11:45.430Z,9.70
2024-01-31T07:14:15.377Z,9.70
2024-01-31T07:16:43.482Z,9.70
2024-01-31T07:19:11.948Z,9.70
2024-01-31T07:21:40.322Z,9.70
2024-01-31T07:24:15.958Z,9.70
2024-01-31T07:26:52.559Z,9.70
2024-01-31T07:29:21.957Z,9.70
2024-01-31T07:31:50.157Z,9.70
2024-01-31T07:34:18.332Z,9.70
2024-01-31T07:36:46.438Z,9.70
2024-01-31T07:39:15.954Z,9.70
2024-01-31T07:41:46.421Z,9.70
2024-01-31T07:44:14.972Z,9.70
2024-01-31T07:46:44.622Z,9.80
2024-01-31T07:49:13.019Z,9.80
2024-01-31T07:51:45.462Z,9.80
2024-01-31T07:54:13.856Z,9.80
2024-01-31T07:56:41.916Z,9.80
2024-01-31T07:59:10.023Z,9.80
2024-01-31T08:01:38.285Z,9.80
2024-01-31T08:04:08.504Z,9.80
2024-01-31T08:06:38.033Z,9.80
2024-01-31T08:09:15.589Z,9.90
2024-01-31T08:11:49.584Z,9.90
2024-01-31T08:14:17.684Z,9.90
2024-01-31T08:16:45.908Z,9.90
2024-01-31T08:19:15.558Z,9.80
2024-01-31T08:21:43.742Z,9.90
2024-01-31T08:24:11.882Z,9.90
2024-01-31T08:26:40.148Z,10.00
2024-01-31T08:29:15.704Z,10.00
2024-01-31T08:31:51.137Z,10.00
2024-01-31T08:34:20.775Z,9.90
2024-01-31T08:36:49.729Z,10.00
2024-01-31T08:39:17.779Z,9.90
2024-01-31T08:41:46.991Z,10.00
2024-01-31T08:44:16.164Z,10.00
2024-01-31T08:46:53.527Z,9.90
2024-01-31T08:49:33.546Z,9.90
2024-01-31T08:52:04.946Z,10.00
2024-01-31T08:54:34.295Z,10.00
2024-01-31T08:57:02.428Z,10.10
2024-01-31T08:59:30.432Z,10.10
2024-01-31T09:01:58.538Z,10.10
2024-01-31T09:04:26.778Z,10.10
2024-01-31T09:06:56.522Z,10.10
2024-01-31T09:09:25.015Z,10.00
2024-01-31T09:11:53.282Z,10.00
2024-01-31T09:14:21.352Z,10.10
2024-01-31T09:16:50.368Z,10.10
2024-01-31T09:19:18.851Z,10.20
2024-01-31T09:21:47.106Z,10.10
2024-01-31T09:24:16.667Z,10.20
2024-01-31T09:26:44.917Z,10.20
2024-01-31T09:29:12.990Z,10.30
2024-01-31T09:31:41.113Z,10.30
2024-01-31T09:34:10.315Z,10.20
2024-01-31T09:36:38.582Z,10.30
2024-01-31T09:39:06.959Z,10.30
2024-01-31T09:41:36.453Z,10.40
2024-01-31T09:44:04.964Z,10.40
2024-01-31T09:46:33.664Z,10.40
2024-01-31T09:49:02.350Z,10.40
2024-01-31T09:51:30.820Z,10.50
2024-01-31T09:54:00.519Z,10.50
2024-01-31T09:56:33.255Z,10.50
2024-01-31T09:59:03.586Z,10.50
2024-01-31T10:01:33.269Z,10.40
2024-01-31T10:04:02.412Z,10.50
2024-01-31T10:06:30.992Z,10.50
2024-01-31T10:09:00.597Z,10.50
2024-01-31T10:11:31.273Z,10.50
2024-01-31T10:13:59.514Z,10.60
2024-01-31T10:16:29.295Z,10.60
2024-01-31T10:18:57.617Z,10.70
2024-01-31T10:21:26.541Z,10.60
2024-01-31T10:23:59.649Z,10.70
2024-01-31T10:26:29.179Z,10.70
2024-01-31T10:29:08.055Z,10.80
2024-01-31T10:31:41.909Z,10.80
2024-01-31T10:34:11.518Z,10.70
2024-01-31T10:39:15.553Z,10.70
2024-01-31T10:41:45.681Z,10.80
2024-01-31T10:44:16.703Z,10.70
2024-01-31T10:46:49.797Z,10.80
2024-01-31T10:49:19.733Z,10.80
2024-01-31T10:51:51.042Z,10.80
2024-01-31T10:54:22.405Z,10.80
2024-01-31T10:56:50.940Z,10.90
2024-01-31T10:59:19.302Z,10.90
2024-01-31T11:02:00.022Z,10.90
2024-01-31T11:04:29.295Z,11.00
2024-01-31T11:07:01.832Z,11.10
2024-01-31T11:09:30.535Z,11.10
2024-01-31T11:12:05.424Z,11.10
2024-01-31T11:14:34.554Z,11.20
2024-01-31T11:17:11.774Z,11.20
2024-01-31T11:19:43.049Z,11.20
2024-01-31T11:22:11.302Z,11.20
2024-01-31T11:24:44.904Z,11.20
2024-01-31T11:27:14.243Z,11.20
2024-01-31T11:29:43.190Z,11.20
2024-01-31T11:32:12.746Z,11.20
2024-01-31T11:34:41.776Z,11.30
2024-01-31T11:37:10.165Z,11.30
2024-01-31T11:39:38.609Z,11.20
2024-01-31T11:42:09.968Z,11.30
2024-01-31T11:44:39.203Z,11.30
2024-01-31T11:47:08.414Z,11.30
2024-01-31T11:49:38.210Z,11.30
2024-01-31T11:52:07.448Z,11.40
2024-01-31T11:54:35.559Z,11.40
2024-01-31T11:57:03.730Z,11.40
2024-01-31T11:59:32.519Z,11.40
2024-01-31T12:02:01.193Z,11.50
2024-01-31T12:04:29.520Z,11.50
2024-01-31T12:07:08.459Z,11.50
2024-01-31T12:09:37.543Z,11.50
2024-01-31T12:12:08.801Z,11.60
2024-01-31T12:14:39.002Z,11.70
2024-01-31T12:17:19.484Z,11.80
2024-01-31T12:19:47.726Z,11.90
2024-01-31T12:22:18.341Z,12.00
2024-01-31T12:24:46.665Z,12.10
2024-01-31T12:27:16.760Z,12.20
2024-01-31T12:29:47.505Z,12.40
2024-01-31T12:32:15.718Z,12.40
2024-01-31T12:34:43.843Z,12.60
2024-01-31T12:37:12.064Z,12.60
2024-01-31T12:39:41.529Z,12.70
2024-01-31T12:42:10.516Z,12.70
2024-01-31T12:44:39.068Z,12.70
2024-01-31T12:47:07.638Z,12.70
2024-01-31T12:52:08.025Z,12.60
2024-01-31T12:54:36.244Z,12.70
2024-01-31T12:57:06.076Z,12.80
2024-01-31T12:59:34.318Z,12.80
2024-01-31T13:02:02.494Z,12.90
2024-01-31T13:04:30.689Z,12.90
2024-01-31T13:06:59.925Z,12.90
2024-01-31T13:09:28.553Z,12.90
2024-01-31T13:11:56.831Z,12.90
2024-01-31T13:14:26.340Z,12.80
2024-01-31T13:17:01.377Z,12.80
2024-01-31T13:19:31.230Z,12.70
2024-01-31T13:21:59.468Z,12.70
2024-01-31T13:24:28.015Z,12.70
2024-01-31T13:26:56.283Z,12.60
2024-01-31T13:29:26.297Z,12.60
2024-01-31T13:31:56.347Z,12.60
2024-01-31T13:34:24.604Z,12.50
2024-01-31T13:36:53.192Z,12.50
2024-01-31T13:39:21.453Z,12.50
2024-01-31T13:41:49.555Z,12.40
2024-01-31T13:44:17.756Z,12.50
2024-01-31T13:46:45.776Z,12.40
2024-01-31T13:49:15.464Z,12.40
2024-01-31T13:51:44.367Z,12.40
2024-01-31T13:54:12.601Z,12.40
2024-01-31T13:56:40.945Z,12.40
2024-01-31T13:59:09.254Z,12.40
2024-01-31T14:01:37.352Z,12.40
2024-01-31T14:04:07.459Z,12.40
2024-01-31T14:06:37.062Z,12.40
2024-01-31T14:09:05.574Z,12.30
2024-01-31T14:11:33.799Z,12.30
2024-01-31T14:14:02.056Z,12.40
2024-01-31T14:16:30.159Z,12.40
2024-01-31T14:18:58.196Z,12.30
2024-01-31T14:21:26.258Z,12.30
2024-01-31T14:24:01.311Z,12.30
2024-01-31T14:26:37.237Z,12.20
2024-01-31T14:29:05.359Z,12.30
2024-01-31T14:31:33.393Z,12.20
2024-01-31T14:34:00.676Z,12.10
2024-01-31T14:36:29.507Z,12.10
2024-01-31T14:38:59.080Z,12.20
2024-01-31T14:41:27.253Z,12.20
2024-01-31T14:43:55.374Z,12.20
2024-01-31T14:46:23.996Z,12.20
2024-01-31T14:48:52.204Z,12.10
2024-01-31T14:51:20.713Z,12.10
2024-01-31T14:53:48.839Z,12.00
2024-01-31T14:56:18.294Z,12.00
2024-01-31T14:58:46.746Z,11.90
2024-01-31T15:01:14.959Z,11.90
2024-01-31T15:03:43.086Z,11.90
2024-01-31T15:06:11.352Z,11.90
2024-01-31T15:08:39.676Z,12.00
2024-01-31T15:11:12.394Z,12.00
2024-01-31T15:13:41.837Z,12.00
2024-01-31T15:16:14.695Z,12.00
2024-01-31T15:18:42.888Z,12.00
2024-01-31T15:21:11.187Z,11.90
2024-01-31T15:23:39.370Z,11.90
2024-01-31T15:26:08.427Z,11.90
2024-01-31T15:28:36.615Z,11.90
2024-01-31T15:31:06.529Z,11.80
2024-01-31T15:33:34.665Z,11.80
2024-01-31T15:36:02.923Z,11.70
2024-01-31T15:38:31.098Z,11.70
2024-01-31T15:40:59.419Z,11.70
2024-01-31T15:43:27.526Z,11.70
2024-01-31T15:45:55.700Z,11.60
2024-01-31T15:48:26.224Z,11.60
2024-01-31T15:50:54.512Z,11.60
2024-01-31T15:53:22.744Z,11.60
2024-01-31T15:55:50.834Z,11.60
2024-01-31T15:58:19.018Z,11.60
2024-01-31T16:00:47.113Z,11.60
2024-01-31T16:03:15.331Z,11.60
2024-01-31T16:05:45.090Z,11.50
2024-01-31T16:08:13.306Z,11.50
2024-01-31T16:10:41.521Z,11.50
2024-01-31T16:13:09.532Z,11.40
2024-01-31T16:15:37.676Z,11.40
2024-01-31T16:18:09.633Z,11.40
2024-01-31T16:20:40.445Z,11.40
2024-01-31T16:23:10.078Z,11.30
2024-01-31T16:25:38.185Z,11.30
2024-01-31T16:28:06.838Z,11.30
2024-01-31T16:30:34.983Z,11.20
2024-01-31T16:33:03.250Z,11.20
2024-01-31T16:35:31.400Z,11.10
2024-01-31T16:37:59.509Z,11.10
2024-01-31T16:40:29.026Z,11.00
2024-01-31T16:42:57.725Z,10.90
2024-01-31T16:45:25.774Z,10.90
2024-01-31T16:47:53.992Z,10.90
2024-01-31T16:50:22.383Z,10.90
2024-01-31T16:52:50.433Z,10.90
2024-01-31T16:55:18.542Z,10.90
2024-01-31T16:57:48.025Z,11.00
2024-01-31T17:00:17.460Z,11.00
2024-01-31T17:02:46.404Z,11.10
2024-01-31T17:05:15.471Z,11.00
2024-01-31T17:07:43.545Z,11.10
2024-01-31T17:10:11.891Z,11.00
2024-01-31T17:12:43.116Z,11.10
2024-01-31T17:15:13.620Z,11.10
2024-01-31T17:17:41.848Z,11.00
2024-01-31T17:20:10.991Z,11.00
2024-01-31T17:22:39.107Z,10.90
2024-01-31T17:25:07.880Z,10.90
2024-01-31T17:27:36.039Z,10.90
2024-01-31T17:30:04.439Z,10.90
2024-01-31T17:32:33.967Z,10.90
2024-01-31T17:35:02.325Z,10.80
2024-01-31T17:37:30.593Z,10.80
2024-01-31T17:39:58.731Z,10.70
2024-01-31T17:42:28.209Z,10.80
2024-01-31T17:44:56.324Z,10.80
2024-01-31T17:47:24.443Z,10.80
2024-01-31T17:49:54.084Z,10.80
2024-01-31T17:52:22.226Z,10.80
2024-01-31T17:54:50.292Z,10.80
2024-01-31T17:57:19.652Z,10.80
2024-01-31T17:59:47.731Z,10.80
2024-01-31T18:02:16.025Z,10.90
2024-01-31T18:04:44.074Z,10.90
2024-01-31T18:07:13.619Z,10.80
2024-01-31T18:09:41.636Z,10.80
2024-01-31T18:12:18.426Z,10.70
2024-01-31T18:14:53.199Z,10.70
2024-01-31T18:17:21.282Z,10.70
2024-01-31T18:19:49.604Z,10.80
2024-01-31T18:22:19.473Z,10.70
2024-01-31T18:24:47.627Z,10.70
2024-01-31T18:27:15.809Z,10.80
2024-01-31T18:29:44.504Z,10.70
2024-01-31T18:32:12.661Z,10.70
2024-01-31T18:34:41.863Z,10.70
2024-01-31T18:37:10.075Z,10.80
2024-01-31T18:39:39.545Z,10.80
2024-01-31T18:42:08.483Z,10.80
2024-01-31T18:44:36.682Z,10.80
2024-01-31T18:47:04.977Z,10.70
2024-01-31T18:49:33.278Z,10.70
2024-01-31T18:52:01.627Z,10.70
2024-01-31T18:54:30.738Z,10.70
2024-01-31T18:57:00.267Z,10.80
2024-01-31T18:59:28.395Z,10.80
2024-01-31T19:01:57.657Z,10.80
2024-01-31T19:04:26.164Z,10.80
2024-01-31T19:06:54.876Z,10.90
2024-01-31T19:09:24.234Z,10.90
2024-01-31T19:11:52.656Z,11.00
2024-01-31T19:14:23.147Z,11.00
2024-01-31T19:16:51.922Z,11.00
2024-01-31T19:19:20.501Z,11.00
2024-01-31T19:21:48.788Z,11.00
2024-01-31T19:24:17.015Z,11.00
2024-01-31T19:26:45.147Z,11.00
2024-01-31T19:29:13.643Z,11.00
2024-01-31T19:31:43.661Z,11.00
2024-01-31T19:34:11.916Z,11.10
2024-01-31T19:36:40.599Z,11.10
2024-01-31T19:39:09.303Z,11.00
2024-01-31T19:41:39.663Z,11.00
2024-01-31T19:44:07.933Z,11.00
2024-01-31T19:46:36.311Z,11.00
2024-01-31T19:49:05.838Z,11.00
2024-01-31T19:51:34.015Z,11.00
2024-01-31T19:54:02.178Z,11.00
2024-01-31T19:56:30.367Z,11.00
2024-01-31T19:58:58.605Z,11.00
2024-01-31T20:01:26.739Z,11.00
2024-01-31T20:03:55.102Z,11.10
2024-01-31T20:06:26.545Z,11.10
2024-01-31T20:08:54.845Z,11.10
2024-01-31T20:11:24.173Z,11.10
2024-01-31T20:13:52.279Z,11.00
2024-01-31T20:16:20.475Z,11.00
2024-01-31T20:18:50.881Z,11.00
2024-01-31T20:21:19.691Z,11.00
2024-01-31T20:23:49.583Z,11.00
2024-01-31T20:26:17.934Z,11.00
2024-01-31T20:28:46.159Z,11.10
2024-01-31T20:31:14.304Z,11.10
2024-01-31T20:33:42.640Z,11.00
2024-01-31T20:36:16.090Z,11.00
2024-01-31T20:38:44.425Z,11.00
2024-01-31T20:41:13.938Z,11.00
2024-01-31T20:43:42.072Z,11.00
2024-01-31T20:46:10.233Z,11.00
2024-01-31T20:48:41.236Z,10.90
2024-01-31T20:51:10.150Z,10.90
2024-01-31T20:53:38.359Z,11.00
2024-01-31T20:56:07.717Z,11.00
2024-01-31T20:58:37.263Z,11.00
2024-01-31T21:01:09.133Z,11.00
2024-01-31T21:03:40.503Z,11.00
2024-01-31T21:06:10.733Z,11.10
2024-01-31T21:08:39.093Z,11.10
2024-01-31T21:11:07.156Z,11.10
2024-01-31T21:13:36.656Z,11.00
2024-01-31T21:16:06.340Z,11.00
2024-01-31T21:18:35.511Z,11.00
2024-01-31T21:21:04.050Z,11.00
2024-01-31T21:23:32.825Z,11.00
2024-01-31T21:26:02.257Z,11.10
2024-01-31T21:28:30.393Z,11.00
2024-01-31T21:30:59.840Z,10.90
2024-01-31T21:33:28.706Z,10.90
2024-01-31T21:35:57.596Z,10.90
2024-01-31T21:38:26.009Z,10.90
2024-01-31T21:40:55.914Z,10.90
2024-01-31T21:43:24.547Z,10.90
2024-01-31T21:45:53.192Z,10.90
2024-01-31T21:48:24.859Z,10.90
2024-01-31T21:50:53.389Z,11.00
2024-01-31T21:53:21.611Z,10.90
2024-01-31T21:55:49.720Z,10.90
2024-01-31T21:58:17.862Z,10.90
2024-01-31T22:00:46.138Z,10.90
2024-01-31T22:03:15.201Z,10.90
2024-01-31T22:05:45.218Z,10.90
2024-01-31T22:08:14.290Z,10.90
2024-01-31T22:10:42.651Z,10.90
2024-01-31T22:13:10.915Z,10.90
2024-01-31T22:15:39.036Z,10.90
2024-01-31T22:18:08.046Z,10.90
2024-01-31T22:20:38.192Z,10.90
2024-01-31T22:23:07.765Z,10.80
2024-01-31T22:25:35.993Z,10.80
2024-01-31T22:28:04.199Z,10.80
2024-01-31T22:30:32.276Z,10.80
2024-01-31T22:33:00.548Z,10.70
2024-01-31T22:35:29.631Z,10.80
2024-01-31T22:37:59.655Z,10.80
2024-01-31T22:40:29.485Z,10.90
2024-01-31T22:42:57.707Z,10.80
2024-01-31T22:45:26.012Z,10.80
2024-01-31T22:47:54.132Z,10.80
2024-01-31T22:50:22.265Z,10.80
2024-01-31T22:52:50.428Z,10.80
2024-01-31T22:55:18.647Z,10.80
2024-01-31T22:57:47.954Z,10.80
2024-01-31T23:00:16.815Z,10.80
2024-01-31T23:02:44.987Z,10.80
2024-01-31T23:05:13.095Z,10.80
2024-01-31T23:07:41.188Z,10.80
2024-01-31T23:10:10.175Z,10.80
2024-01-31T23:12:38.573Z,10.80
2024-01-31T23:15:09.212Z,10.80
2024-01-31T23:17:37.554Z,10.70
2024-01-31T23:20:07.614Z,10.70
2024-01-31T23:22:35.642Z,10.70
2024-01-31T23:25:04.253Z,10.80
2024-01-31T23:27:32.318Z,10.70
2024-01-31T23:30:00.481Z,10.80
2024-01-31T23:32:29.995Z,10.70
2024-01-31T23:34:58.163Z,10.80
2024-01-31T23:37:26.187Z,10.80
2024-01-31T23:39:54.196Z,10.70
2024-01-31T23:42:22.220Z,10.70
2024-01-31T23:44:50.517Z,10.60
2024-01-31T23:47:20.961Z,10.60
2024-01-31T23:49:50.618Z,10.60
2024-01-31T23:52:18.737Z,10.60
2024-01-31T23:54:46.805Z,10.60
2024-01-31T23:57:15.589Z,10.70
2024-01-31T23:59:44.864Z,10.60
